This is the latest recevied weather packets stored in our database for station/object N9BSW. If no packets are shown the sender has not sent any weather packets the latest 10 day(s).
| Time | Temp. | Humidity | Pressure | Rain* | Wind** | Luminosity | Snow |
|---|---|---|---|---|---|---|---|
| 1777920713 | 16.11° C | 75% | 1006.4 hPa | 0 mm | - | 108 W/m² | - |
| 1777920410 | 16.67° C | 75% | 1006.6 hPa | 0 mm | - | 48 W/m² | - |
| 1777920105 | 16.67° C | 74% | 1007.1 hPa | 0 mm | - | 33 W/m² | - |
| 1777919802 | 17.22° C | 72% | 1007.6 hPa | 0 mm | - | 29 W/m² | - |
| 1777919499 | 17.78° C | 71% | 1008.3 hPa | 0 mm | - | 28 W/m² | - |
| 1777919197 | 18.33° C | 68% | 1008.1 hPa | 0 mm | - | 37 W/m² | - |
| 1777918894 | 18.89° C | 63% | 1007.6 hPa | 0 mm | - | 51 W/m² | - |
| 1777918592 | 19.44° C | 62% | 1007.5 hPa | 0 mm | - | 73 W/m² | - |
| 1777918289 | 19.44° C | 60% | 1007.3 hPa | 0 mm | - | 87 W/m² | - |
| 1777917988 | 20° C | 60% | 1007.1 hPa | 0 mm | - | 115 W/m² | - |
| 1777917686 | 20° C | 58% | 1007 hPa | 0 mm | - | 140 W/m² | - |
| 1777917383 | 20° C | 58% | 1007 hPa | 0 mm | - | 178 W/m² | - |
| 1777917080 | 20.56° C | 57% | 1007 hPa | 0 mm | - | 242 W/m² | - |
| 1777916778 | 20.56° C | 56% | 1007.1 hPa | 0 mm | - | 282 W/m² | - |
| 1777916474 | 20.56° C | 55% | 1006.9 hPa | 0 mm | - | 327 W/m² | - |
| 1777916171 | 21.11° C | 56% | 1006.7 hPa | 0 mm | - | 361 W/m² | - |
| 1777915869 | 21.11° C | 55% | 1006.7 hPa | 0 mm | - | 343 W/m² | - |
| 1777915565 | 21.67° C | 54% | 1006.9 hPa | 0 mm | - | 376 W/m² | - |
| 1777915262 | 21.11° C | 58% | 1006.8 hPa | 0 mm | - | 549 W/m² | - |
| 1777914958 | 20.56° C | 59% | 1006.9 hPa | 0 mm | - | 410 W/m² | - |
| 1777914656 | 19.44° C | 61% | 1006.6 hPa | 0 mm | - | 448 W/m² | - |
| 1777914351 | 19.44° C | 62% | 1006.9 hPa | 0 mm | - | 298 W/m² | - |
| 1777914049 | 19.44° C | 62% | 1006.8 hPa | 0 mm | - | 261 W/m² | - |
| 1777913744 | 19.44° C | 62% | 1006.7 hPa | 0 mm | - | 255 W/m² | - |
| 1777913442 | 19.44° C | 61% | 1007.4 hPa | 0 mm | - | 210 W/m² | - |
* Rain latest hour (hover to see other rain measurements)
** Current wind speed in m/s (hover to see current wind gust speed)